Glace Bay, Canada
Current Conditions -  °F | °C
As of 4:00 PM on Saturday 25 Oct 2014 (Local Time) from CYQY Reporting Station
Drizzle Drizzle  
Wind Chill: 50°   Ceiling: 300
Heat Index: 50°   Visibility: 0.75mi
Dew Point: 50°   Wind: 17mph
Humidity: 100%   Direction: 20°NNE
Pressure: 29.39"   Gusts: NA
Location:  46.2°N, 59.96°W
Report Text: CYQY 251900Z 02015KT 3/4SM R07/5000FT/U -DZ BR BKN003 OVC012 10/10 A2939 RMK ST7ST1 SLP952 DENSITY ALT 300FT
Loading
Personal Weather Stations






























Interactive Weather Map
Tropical Storm Tracking
New forecast layout! Learn more

10-Day Weather Forecast

Advertisements
Track Severe Weather on mobile